createdAt,value
2018-07-24T00:00:54.688Z,0.00
2018-07-24T00:01:54.870Z,0.00
2018-07-24T00:02:55.059Z,0.00
2018-07-24T00:03:55.234Z,0.00
2018-07-24T00:04:55.417Z,0.00
2018-07-24T00:05:55.604Z,0.00
2018-07-24T00:06:55.785Z,0.00
2018-07-24T00:07:55.967Z,0.00
2018-07-24T00:08:56.149Z,0.00
2018-07-24T00:09:56.327Z,0.00
2018-07-24T00:10:56.559Z,0.00
2018-07-24T00:11:56.685Z,0.00
2018-07-24T00:12:56.870Z,0.00
2018-07-24T00:13:57.079Z,0.00
2018-07-24T00:14:57.237Z,0.00
2018-07-24T00:15:57.421Z,0.00
2018-07-24T00:16:57.606Z,0.00
2018-07-24T00:17:57.790Z,0.00
2018-07-24T00:18:57.966Z,0.00
2018-07-24T00:19:58.150Z,0.00
2018-07-24T00:20:58.329Z,0.00
2018-07-24T00:21:58.508Z,0.00
2018-07-24T00:22:58.691Z,0.00
2018-07-24T00:23:58.869Z,0.00
2018-07-24T00:24:59.055Z,0.00
2018-07-24T00:25:59.257Z,0.00
2018-07-24T00:26:59.451Z,0.00
2018-07-24T00:27:59.619Z,0.00
2018-07-24T00:28:59.798Z,0.00
2018-07-24T00:29:59.984Z,0.00
2018-07-24T00:31:00.168Z,0.00
2018-07-24T00:32:00.384Z,0.00
2018-07-24T00:33:00.528Z,0.00
2018-07-24T00:34:00.959Z,0.00
2018-07-24T00:35:00.885Z,0.00
2018-07-24T00:36:01.074Z,0.00
2018-07-24T00:38:01.429Z,0.00
2018-07-24T00:39:01.720Z,0.00
2018-07-24T00:40:01.801Z,0.00
2018-07-24T00:41:01.959Z,0.00
2018-07-24T00:42:02.134Z,0.00
2018-07-24T00:43:02.317Z,0.00
2018-07-24T00:44:02.503Z,0.00
2018-07-24T00:45:02.686Z,0.00
2018-07-24T00:46:02.872Z,0.00
2018-07-24T00:47:03.048Z,0.00
2018-07-24T00:48:03.233Z,0.00
2018-07-24T00:49:03.415Z,0.00
2018-07-24T00:50:03.599Z,0.00
2018-07-24T00:51:04.044Z,0.00
2018-07-24T00:52:03.966Z,0.00
2018-07-24T00:53:04.163Z,0.00
2018-07-24T00:54:04.380Z,0.00
2018-07-24T00:55:04.515Z,0.00
2018-07-24T00:56:04.698Z,0.00
2018-07-24T00:57:04.880Z,0.00
2018-07-24T00:58:05.061Z,0.00
2018-07-24T00:59:05.257Z,0.00
2018-07-24T01:00:05.445Z,0.00
2018-07-24T01:02:05.798Z,0.00
2018-07-24T01:03:05.974Z,0.00
2018-07-24T01:04:06.168Z,0.00
2018-07-24T01:05:06.341Z,0.00
2018-07-24T01:06:06.527Z,0.00
2018-07-24T01:07:06.712Z,0.00
2018-07-24T01:08:06.895Z,0.00
2018-07-24T01:09:07.077Z,0.00
2018-07-24T01:10:07.260Z,0.00
2018-07-24T01:11:07.442Z,0.00
2018-07-24T01:12:07.634Z,0.00
2018-07-24T01:13:07.802Z,0.00
2018-07-24T01:14:07.989Z,0.00
2018-07-24T01:15:08.168Z,0.00
2018-07-24T01:16:08.348Z,0.00
2018-07-24T01:17:08.527Z,0.00
2018-07-24T01:18:08.697Z,0.00
2018-07-24T01:19:08.882Z,0.00
2018-07-24T01:20:09.064Z,0.00
2018-07-24T01:21:09.235Z,0.00
2018-07-24T01:22:09.421Z,0.00
2018-07-24T01:23:09.603Z,0.00
2018-07-24T01:24:09.787Z,0.00
2018-07-24T01:25:09.972Z,0.00
2018-07-24T01:26:10.146Z,0.00
2018-07-24T01:27:10.331Z,0.00
2018-07-24T01:28:10.521Z,0.00
2018-07-24T01:29:10.696Z,0.00
2018-07-24T01:30:10.869Z,0.00
2018-07-24T01:31:11.051Z,0.00
2018-07-24T01:32:11.231Z,0.00
2018-07-24T01:33:11.425Z,0.00
2018-07-24T01:34:11.600Z,0.00
2018-07-24T01:35:11.780Z,0.00
2018-07-24T01:36:11.960Z,0.00
2018-07-24T01:37:12.145Z,0.00
2018-07-24T01:38:12.320Z,0.00
2018-07-24T01:39:12.494Z,0.00
2018-07-24T01:40:12.679Z,0.00
2018-07-24T01:41:12.892Z,0.00
2018-07-24T01:42:13.055Z,0.00
2018-07-24T01:43:13.225Z,0.00
2018-07-24T01:44:13.400Z,0.00
2018-07-24T01:45:13.589Z,0.00
2018-07-24T01:46:13.762Z,0.00
2018-07-24T01:47:13.939Z,0.00
2018-07-24T01:48:14.118Z,0.00
2018-07-24T01:49:14.300Z,0.00
2018-07-24T01:50:14.481Z,0.00
2018-07-24T01:51:14.655Z,0.00
2018-07-24T01:52:15.042Z,0.00
2018-07-24T01:53:15.153Z,0.00
2018-07-24T01:54:15.542Z,0.00
2018-07-24T01:55:15.617Z,0.00
2018-07-24T01:56:15.761Z,0.00
2018-07-24T01:57:15.845Z,0.00
2018-07-24T01:58:16.022Z,0.00
2018-07-24T01:59:16.207Z,0.00
2018-07-24T02:00:16.388Z,0.00
2018-07-24T02:01:16.578Z,0.00
2018-07-24T02:02:16.745Z,0.00
2018-07-24T02:03:16.934Z,0.00
2018-07-24T02:04:17.103Z,0.00
2018-07-24T02:05:17.289Z,0.00
2018-07-24T02:06:17.480Z,0.00
2018-07-24T02:07:17.656Z,0.00
2018-07-24T02:08:17.836Z,0.00
2018-07-24T02:09:18.021Z,0.00
2018-07-24T02:10:18.213Z,0.00
2018-07-24T02:11:18.383Z,0.00
2018-07-24T02:12:18.583Z,0.00
2018-07-24T02:13:18.751Z,0.00
2018-07-24T02:14:18.937Z,0.00
2018-07-24T02:15:19.114Z,0.00
2018-07-24T02:16:19.321Z,0.00
2018-07-24T02:17:19.468Z,0.00
2018-07-24T02:18:19.653Z,0.00
2018-07-24T02:19:19.834Z,0.00
2018-07-24T02:20:20.014Z,0.00
2018-07-24T02:21:20.196Z,0.00
2018-07-24T02:22:20.380Z,0.00
2018-07-24T02:23:20.560Z,0.00
2018-07-24T02:24:20.741Z,0.00
2018-07-24T02:25:20.924Z,0.00
2018-07-24T02:26:21.101Z,0.00
2018-07-24T02:27:21.284Z,0.00
2018-07-24T02:28:21.463Z,0.00
2018-07-24T02:29:21.642Z,0.00
2018-07-24T02:30:21.829Z,0.00
2018-07-24T02:31:22.011Z,0.00
2018-07-24T02:32:22.190Z,0.00
2018-07-24T02:33:22.369Z,0.00
2018-07-24T02:34:22.550Z,0.00
2018-07-24T02:35:22.731Z,0.00
2018-07-24T02:36:22.915Z,0.00
2018-07-24T02:37:23.108Z,0.00
2018-07-24T02:38:23.278Z,0.00
2018-07-24T02:39:23.455Z,0.00
2018-07-24T02:40:23.895Z,0.00
2018-07-24T02:41:23.814Z,0.00
2018-07-24T02:42:24.001Z,0.00
2018-07-24T02:43:24.187Z,0.00
2018-07-24T02:44:24.355Z,0.00
2018-07-24T02:45:24.538Z,0.00
2018-07-24T02:46:24.719Z,0.00
2018-07-24T02:47:24.897Z,0.00
2018-07-24T02:48:25.082Z,0.00
2018-07-24T02:49:25.283Z,0.00
2018-07-24T02:51:25.619Z,0.00
2018-07-24T02:52:25.805Z,0.00
2018-07-24T02:53:25.981Z,0.00
2018-07-24T02:54:26.170Z,0.00
2018-07-24T02:55:26.343Z,0.00
2018-07-24T02:56:26.523Z,0.00
2018-07-24T02:57:26.706Z,0.00
2018-07-24T02:58:26.883Z,0.00
2018-07-24T02:59:27.068Z,0.00
2018-07-24T03:00:27.248Z,0.00
2018-07-24T03:01:27.427Z,0.00
2018-07-24T03:02:27.610Z,0.00
2018-07-24T03:03:27.789Z,0.00
2018-07-24T03:04:27.969Z,0.00
2018-07-24T03:05:28.153Z,0.00
2018-07-24T03:06:28.323Z,0.00
2018-07-24T03:07:28.503Z,0.00
2018-07-24T03:08:28.684Z,0.00
2018-07-24T03:09:28.863Z,0.00
2018-07-24T03:10:29.049Z,0.00
2018-07-24T03:11:29.227Z,0.00
2018-07-24T03:12:29.410Z,0.00
2018-07-24T03:13:29.593Z,0.00
2018-07-24T03:14:30.076Z,0.00
2018-07-24T03:15:29.975Z,0.00
2018-07-24T03:16:30.123Z,0.00
2018-07-24T03:17:30.310Z,0.00
2018-07-24T03:18:30.489Z,0.00
2018-07-24T03:19:30.666Z,0.00
2018-07-24T03:20:30.850Z,0.00
2018-07-24T03:21:31.026Z,0.00
2018-07-24T03:22:31.207Z,0.00
2018-07-24T03:23:31.382Z,5.63
2018-07-24T03:24:31.578Z,5.63
2018-07-24T03:25:31.755Z,5.63
2018-07-24T03:26:31.931Z,5.63
2018-07-24T03:27:32.111Z,5.63
2018-07-24T03:28:32.285Z,5.63
2018-07-24T03:29:32.468Z,5.63
2018-07-24T03:30:32.669Z,5.63
2018-07-24T03:31:32.828Z,11.25
2018-07-24T03:32:33.012Z,11.25
2018-07-24T03:33:33.197Z,11.25
2018-07-24T03:34:33.379Z,11.25
2018-07-24T03:35:33.559Z,11.25
2018-07-24T03:36:33.739Z,11.25
2018-07-24T03:37:33.921Z,16.88
2018-07-24T03:38:34.106Z,16.88
2018-07-24T03:39:34.329Z,16.88
2018-07-24T03:40:34.475Z,16.88
2018-07-24T03:41:34.650Z,22.50
2018-07-24T03:42:34.830Z,22.50
2018-07-24T03:43:35.011Z,22.50
2018-07-24T03:44:35.194Z,22.50
2018-07-24T03:45:35.376Z,28.13
2018-07-24T03:46:35.557Z,28.13
2018-07-24T03:47:35.743Z,28.13
2018-07-24T03:48:35.924Z,33.75
2018-07-24T03:49:36.108Z,33.75
2018-07-24T03:50:36.280Z,33.75
2018-07-24T03:51:36.459Z,39.38
2018-07-24T03:52:36.654Z,39.38
2018-07-24T03:53:36.827Z,45.00
2018-07-24T03:54:37.006Z,45.00
2018-07-24T03:55:37.188Z,50.63
2018-07-24T03:56:37.369Z,50.63
2018-07-24T03:57:37.552Z,50.63
2018-07-24T03:58:37.970Z,56.25
2018-07-24T03:59:37.909Z,56.25
2018-07-24T04:00:38.094Z,61.88
2018-07-24T04:01:38.287Z,61.88
2018-07-24T04:02:38.468Z,67.50
2018-07-24T04:03:38.635Z,67.50
2018-07-24T04:04:38.817Z,73.13
2018-07-24T04:05:39.002Z,78.75
2018-07-24T04:06:39.182Z,78.75
2018-07-24T04:07:39.367Z,84.38
2018-07-24T04:08:39.779Z,84.38
2018-07-24T04:09:39.718Z,90.00
2018-07-24T04:10:39.901Z,95.63
2018-07-24T04:11:40.080Z,95.63
2018-07-24T04:12:40.260Z,101.25
2018-07-24T04:13:40.439Z,101.25
2018-07-24T04:14:40.621Z,106.88
2018-07-24T04:15:40.802Z,112.50
2018-07-24T04:16:40.982Z,112.50
2018-07-24T04:17:41.159Z,118.13
2018-07-24T04:18:41.341Z,123.75
2018-07-24T04:19:41.522Z,129.38
2018-07-24T04:20:41.707Z,135.00
2018-07-24T04:21:41.889Z,135.00
2018-07-24T04:22:42.068Z,140.63
2018-07-24T04:23:42.242Z,146.25
2018-07-24T04:24:42.432Z,151.88
2018-07-24T04:25:42.612Z,157.50
2018-07-24T04:26:42.789Z,236.25
2018-07-24T04:27:42.971Z,776.25
2018-07-24T04:28:43.160Z,1265.63
2018-07-24T04:29:43.347Z,1321.88
2018-07-24T04:30:43.565Z,1485.00
2018-07-24T04:31:43.700Z,1665.00
2018-07-24T04:32:43.883Z,1738.13
2018-07-24T04:33:44.061Z,1788.75
2018-07-24T04:34:44.243Z,1833.75
2018-07-24T04:35:44.424Z,1884.38
2018-07-24T04:36:44.607Z,1929.38
2018-07-24T04:37:44.794Z,1974.38
2018-07-24T04:38:44.969Z,2025.00
2018-07-24T04:39:45.200Z,2075.63
2018-07-24T04:40:45.333Z,2115.00
2018-07-24T04:41:45.524Z,2148.75
2018-07-24T04:43:45.877Z,2176.88
2018-07-24T04:44:46.062Z,2182.50
2018-07-24T04:45:46.250Z,2210.63
2018-07-24T04:46:46.431Z,2227.50
2018-07-24T04:47:46.624Z,2244.38
2018-07-24T04:48:46.804Z,2266.88
2018-07-24T04:49:46.992Z,2300.63
2018-07-24T04:50:47.178Z,2356.88
2018-07-24T04:51:47.385Z,2413.13
2018-07-24T04:52:47.548Z,2463.75
2018-07-24T04:53:47.733Z,2525.63
2018-07-24T04:54:47.928Z,2576.25
2018-07-24T04:55:48.109Z,2621.25
2018-07-24T04:56:48.296Z,2655.00
2018-07-24T04:57:48.484Z,2688.75
2018-07-24T04:58:48.671Z,2716.88
2018-07-24T04:59:48.851Z,2733.75
2018-07-24T05:00:49.044Z,2784.38
2018-07-24T05:01:49.230Z,2851.88
2018-07-24T05:02:49.419Z,2896.88
2018-07-24T05:03:49.614Z,2925.00
2018-07-24T05:04:49.798Z,2941.88
2018-07-24T05:05:49.985Z,2970.00
2018-07-24T05:06:50.174Z,2981.25
2018-07-24T05:07:50.362Z,3003.75
2018-07-24T05:08:50.554Z,3020.63
2018-07-24T05:09:50.734Z,3031.88
2018-07-24T05:10:50.933Z,3048.75
2018-07-24T05:11:51.120Z,3060.00
2018-07-24T05:12:51.316Z,3093.75
2018-07-24T05:13:51.509Z,3099.38
2018-07-24T05:14:51.678Z,3127.50
2018-07-24T05:15:51.877Z,3133.13
2018-07-24T05:16:52.134Z,3150.00
2018-07-24T05:17:52.244Z,3133.13
2018-07-24T05:18:52.442Z,3116.25
2018-07-24T05:19:52.633Z,3093.75
2018-07-24T05:20:52.817Z,3071.25
2018-07-24T05:21:53.029Z,3054.38
2018-07-24T05:22:53.195Z,3037.50
2018-07-24T05:23:53.384Z,3031.88
2018-07-24T05:24:53.578Z,3060.00
2018-07-24T05:25:53.764Z,3110.63
2018-07-24T05:26:53.947Z,3166.88
2018-07-24T05:27:54.140Z,3211.88
2018-07-24T05:28:54.335Z,3262.50
2018-07-24T05:29:54.525Z,3296.25
2018-07-24T05:30:54.716Z,3346.88
2018-07-24T05:31:55.153Z,3386.25
2018-07-24T05:32:55.096Z,3436.88
2018-07-24T05:33:55.292Z,3470.63
2018-07-24T05:34:55.486Z,3487.50
2018-07-24T05:35:55.727Z,3481.88
2018-07-24T05:36:55.853Z,3211.88
2018-07-24T05:37:56.098Z,3206.25
2018-07-24T05:38:56.262Z,3166.88
2018-07-24T05:39:56.460Z,3166.88
2018-07-24T05:40:56.649Z,3144.38
2018-07-24T05:41:56.839Z,3144.38
2018-07-24T05:42:57.027Z,3161.25
2018-07-24T05:43:57.226Z,3195.00
2018-07-24T05:44:57.412Z,3200.63
2018-07-24T05:45:57.605Z,3217.50
2018-07-24T05:46:57.791Z,3228.75
2018-07-24T05:47:57.986Z,3245.63
2018-07-24T05:48:58.275Z,3234.38
2018-07-24T05:49:58.421Z,3251.25
2018-07-24T05:50:58.587Z,3273.75
2018-07-24T05:51:58.780Z,3285.00
2018-07-24T05:52:58.969Z,3296.25
2018-07-24T05:53:59.163Z,3279.38
2018-07-24T05:54:59.388Z,3268.13
2018-07-24T05:55:59.549Z,3240.00
2018-07-24T05:56:59.742Z,3211.88
2018-07-24T05:57:59.935Z,3172.50
2018-07-24T05:59:00.124Z,3166.88
2018-07-24T06:00:00.327Z,3127.50
2018-07-24T06:01:00.511Z,3110.63
2018-07-24T06:02:00.723Z,3082.50
2018-07-24T06:03:00.903Z,3071.25
2018-07-24T06:04:01.093Z,3099.38
2018-07-24T06:05:01.308Z,3121.88
2018-07-24T06:06:01.475Z,3150.00
2018-07-24T06:07:01.666Z,3161.25
2018-07-24T06:08:01.857Z,3178.13
2018-07-24T06:09:02.100Z,3206.25
2018-07-24T06:10:02.242Z,3245.63
2018-07-24T06:11:02.435Z,3256.88
2018-07-24T06:12:02.632Z,3273.75
2018-07-24T06:13:02.858Z,3268.13
2018-07-24T06:14:03.017Z,3279.38
2018-07-24T06:15:03.214Z,3262.50
2018-07-24T06:16:03.412Z,3268.13
2018-07-24T06:17:03.665Z,3268.13
2018-07-24T06:18:03.787Z,3268.13
2018-07-24T06:19:03.975Z,3273.75
2018-07-24T06:20:04.169Z,3268.13
2018-07-24T06:21:04.362Z,3256.88
2018-07-24T06:22:04.547Z,3240.00
2018-07-24T06:23:04.750Z,3234.38
2018-07-24T06:24:04.949Z,3206.25
2018-07-24T06:25:05.138Z,3195.00
2018-07-24T06:26:05.326Z,3217.50
2018-07-24T06:27:05.535Z,3217.50
2018-07-24T06:28:05.714Z,3217.50
2018-07-24T06:29:05.927Z,3240.00
2018-07-24T06:30:06.112Z,3211.88
2018-07-24T06:31:06.302Z,3200.63
2018-07-24T06:32:06.489Z,3166.88
2018-07-24T06:33:06.697Z,3099.38
2018-07-24T06:34:06.886Z,3015.00
2018-07-24T06:35:07.140Z,2908.13
2018-07-24T06:36:07.268Z,2795.63
2018-07-24T06:37:07.471Z,2688.75
2018-07-24T06:38:07.638Z,2598.75
2018-07-24T06:39:07.830Z,2520.00
2018-07-24T06:40:08.020Z,2424.38
2018-07-24T06:41:08.216Z,2362.50
2018-07-24T06:42:08.408Z,2334.38
2018-07-24T06:43:08.602Z,2379.38
2018-07-24T06:44:08.827Z,2441.25
2018-07-24T06:45:09.003Z,2525.63
2018-07-24T06:46:09.189Z,2626.88
2018-07-24T06:47:09.373Z,2728.13
2018-07-24T06:48:09.585Z,2823.75
2018-07-24T06:49:09.838Z,2902.50
2018-07-24T06:50:09.916Z,2998.13
2018-07-24T06:51:10.165Z,3065.63
2018-07-24T06:52:10.288Z,3110.63
2018-07-24T06:53:10.482Z,3138.75
2018-07-24T06:54:10.671Z,3133.13
2018-07-24T06:55:10.865Z,3144.38
2018-07-24T06:56:11.058Z,3127.50
2018-07-24T06:57:11.259Z,3099.38
2018-07-24T06:58:11.455Z,3093.75
2018-07-24T06:59:11.630Z,3116.25
2018-07-24T07:01:12.008Z,3195.00
2018-07-24T07:02:12.234Z,3189.38
2018-07-24T07:03:12.381Z,3178.13
2018-07-24T07:04:12.571Z,3161.25
2018-07-24T07:05:12.807Z,3116.25
2018-07-24T07:06:12.958Z,3065.63
2018-07-24T07:07:13.287Z,3071.25
2018-07-24T07:08:13.349Z,3121.88
2018-07-24T07:09:13.542Z,3110.63
2018-07-24T07:10:13.742Z,3076.88
2018-07-24T07:11:13.931Z,3037.50
2018-07-24T07:12:14.118Z,2992.50
2018-07-24T07:13:14.353Z,2919.38
2018-07-24T07:14:14.511Z,2863.13
2018-07-24T07:15:14.706Z,2840.63
2018-07-24T07:16:14.948Z,2806.88
2018-07-24T07:17:15.106Z,2801.25
2018-07-24T07:18:15.285Z,2784.38
2018-07-24T07:19:15.479Z,2778.75
2018-07-24T07:20:15.671Z,2767.50
2018-07-24T07:21:15.867Z,2745.00
2018-07-24T07:22:16.087Z,2733.75
2018-07-24T07:23:16.287Z,2716.88
2018-07-24T07:24:16.426Z,2705.63
2018-07-24T07:25:16.615Z,2700.00
2018-07-24T07:26:16.889Z,2683.13
2018-07-24T07:27:17.003Z,2677.50
2018-07-24T07:28:17.232Z,2660.63
2018-07-24T07:29:17.388Z,2632.50
2018-07-24T07:30:17.582Z,2632.50
2018-07-24T07:31:17.781Z,2610.00
2018-07-24T07:32:17.983Z,2598.75
2018-07-24T07:33:18.166Z,2593.13
2018-07-24T07:34:18.374Z,2565.00
2018-07-24T07:35:18.585Z,2542.50
2018-07-24T07:36:18.768Z,2520.00
2018-07-24T07:37:18.956Z,2520.00
2018-07-24T07:38:19.150Z,2486.25
2018-07-24T07:39:19.407Z,2463.75
2018-07-24T07:40:19.599Z,2446.88
2018-07-24T07:41:19.727Z,2413.13
2018-07-24T07:42:19.920Z,2396.25
2018-07-24T07:43:20.110Z,2368.13
2018-07-24T07:44:20.299Z,2351.25
2018-07-24T07:45:20.546Z,2323.13
2018-07-24T07:46:20.692Z,2289.38
2018-07-24T07:47:20.881Z,2272.50
2018-07-24T07:48:21.108Z,2250.00
2018-07-24T07:49:21.264Z,2238.75
2018-07-24T07:50:21.528Z,2221.88
2018-07-24T07:51:21.685Z,2205.00
2018-07-24T07:52:21.897Z,2193.75
2018-07-24T07:53:22.044Z,2182.50
2018-07-24T07:54:22.235Z,2160.00
2018-07-24T07:55:22.422Z,2171.25
2018-07-24T07:56:22.622Z,2148.75
2018-07-24T07:57:22.825Z,2131.88
2018-07-24T07:58:23.002Z,2103.75
2018-07-24T07:59:23.199Z,2086.88
2018-07-24T08:00:23.394Z,2058.75
2018-07-24T08:01:23.595Z,2036.25
2018-07-24T08:02:23.832Z,2008.13
2018-07-24T08:03:23.976Z,1991.25
2018-07-24T08:05:24.360Z,1929.38
2018-07-24T08:06:24.553Z,1901.25
2018-07-24T08:07:24.790Z,1884.38
2018-07-24T08:08:24.926Z,1850.63
2018-07-24T08:09:25.116Z,1822.50
2018-07-24T08:10:25.329Z,1805.63
2018-07-24T08:11:25.509Z,1777.50
2018-07-24T08:12:25.754Z,1755.00
2018-07-24T08:13:25.901Z,1732.50
2018-07-24T08:14:26.101Z,1721.25
2018-07-24T08:15:26.271Z,1698.75
2018-07-24T08:16:26.472Z,1681.88
2018-07-24T08:17:26.658Z,1670.63
2018-07-24T08:18:26.850Z,1648.13
2018-07-24T08:19:27.044Z,1620.00
2018-07-24T08:20:27.226Z,1603.13
2018-07-24T08:21:27.413Z,1597.50
2018-07-24T08:22:27.608Z,1546.88
2018-07-24T08:23:27.809Z,1535.63
2018-07-24T08:24:27.992Z,1501.88
2018-07-24T08:25:28.178Z,1468.13
2018-07-24T08:26:28.377Z,1440.00
2018-07-24T08:27:28.586Z,1406.25
2018-07-24T08:28:28.766Z,1378.13
2018-07-24T08:29:28.974Z,1350.00
2018-07-24T08:30:29.142Z,1333.13
2018-07-24T08:31:29.346Z,1310.63
2018-07-24T08:32:29.545Z,1293.75
2018-07-24T08:33:29.779Z,1276.88
2018-07-24T08:34:29.926Z,1260.00
2018-07-24T08:35:30.110Z,1237.50
2018-07-24T08:36:30.311Z,1215.00
2018-07-24T08:37:30.490Z,1186.88
2018-07-24T08:38:30.688Z,1164.38
2018-07-24T08:39:30.866Z,1147.50
2018-07-24T08:40:31.084Z,1125.00
2018-07-24T08:41:31.410Z,1096.88
2018-07-24T08:42:32.279Z,1074.38
2018-07-24T08:44:31.885Z,1023.75
2018-07-24T08:45:32.096Z,1006.88
2018-07-24T08:46:32.275Z,984.38
2018-07-24T08:47:32.465Z,956.25
2018-07-24T08:48:32.652Z,939.38
2018-07-24T08:49:32.857Z,945.00
2018-07-24T08:50:33.036Z,939.38
2018-07-24T08:51:33.223Z,933.75
2018-07-24T08:52:33.514Z,933.75
2018-07-24T08:53:33.933Z,956.25
2018-07-24T08:54:33.884Z,984.38
2018-07-24T08:55:34.367Z,1006.88
2018-07-24T08:56:34.184Z,1051.88
2018-07-24T08:57:34.432Z,1108.13
2018-07-24T08:58:34.589Z,1136.25
2018-07-24T08:59:34.766Z,1130.63
2018-07-24T09:00:34.971Z,1136.25
2018-07-24T09:01:35.147Z,1141.88
2018-07-24T09:02:35.337Z,1130.63
2018-07-24T09:03:35.641Z,1125.00
2018-07-24T09:04:35.727Z,1147.50
2018-07-24T09:05:35.913Z,1147.50
2018-07-24T09:06:36.102Z,1136.25
2018-07-24T09:07:36.299Z,1164.38
2018-07-24T09:08:36.482Z,1181.25
2018-07-24T09:09:36.669Z,1158.75
2018-07-24T09:10:36.868Z,1147.50
2018-07-24T09:11:37.060Z,1170.00
2018-07-24T09:12:37.250Z,1164.38
2018-07-24T09:13:37.460Z,1164.38
2018-07-24T09:14:37.637Z,1164.38
2018-07-24T09:15:37.866Z,1158.75
2018-07-24T09:16:38.026Z,1147.50
2018-07-24T09:17:38.225Z,1141.88
2018-07-24T09:18:38.425Z,1147.50
2018-07-24T09:19:38.601Z,1158.75
2018-07-24T09:20:38.795Z,1153.13
2018-07-24T09:21:39.008Z,1153.13
2018-07-24T09:22:39.190Z,1164.38
2018-07-24T09:23:39.376Z,1186.88
2018-07-24T09:24:39.564Z,1192.50
2018-07-24T09:25:39.770Z,1209.38
2018-07-24T09:26:39.973Z,1226.25
2018-07-24T09:27:40.801Z,1231.88
2018-07-24T09:28:40.347Z,1248.75
2018-07-24T09:29:40.539Z,1260.00
2018-07-24T09:30:40.734Z,1282.50
2018-07-24T09:31:40.932Z,1288.13
2018-07-24T09:32:41.122Z,1316.25
2018-07-24T09:33:41.315Z,1338.75
2018-07-24T09:34:41.502Z,1344.38
2018-07-24T09:35:41.702Z,1366.88
2018-07-24T09:36:41.909Z,1406.25
2018-07-24T09:37:42.085Z,1417.50
2018-07-24T09:38:42.271Z,1428.75
2018-07-24T09:39:42.466Z,1451.25
2018-07-24T09:40:42.658Z,1496.25
2018-07-24T09:41:42.860Z,1518.75
2018-07-24T09:42:43.036Z,1552.50
2018-07-24T09:43:43.240Z,1597.50
2018-07-24T09:44:43.427Z,1631.25
2018-07-24T09:45:43.680Z,1642.50
2018-07-24T09:46:43.866Z,1653.75
2018-07-24T09:47:44.040Z,1687.50
2018-07-24T09:48:44.236Z,1698.75
2018-07-24T09:49:44.415Z,1681.88
2018-07-24T09:50:44.638Z,1687.50
2018-07-24T09:51:44.776Z,1710.00
2018-07-24T09:52:44.980Z,1738.13
2018-07-24T09:53:45.161Z,1760.63
2018-07-24T09:54:45.605Z,1800.00
2018-07-24T09:55:45.548Z,1811.25
2018-07-24T09:56:45.734Z,1788.75
2018-07-24T09:57:45.936Z,1788.75
2018-07-24T09:58:46.117Z,1800.00
2018-07-24T09:59:46.311Z,1800.00
2018-07-24T10:00:46.513Z,1608.75
2018-07-24T10:01:46.697Z,1164.38
2018-07-24T10:02:46.891Z,720.00
2018-07-24T10:03:47.087Z,556.88
2018-07-24T10:04:47.279Z,551.25
2018-07-24T10:05:47.480Z,545.63
2018-07-24T10:06:47.673Z,534.38
2018-07-24T10:07:47.875Z,528.75
2018-07-24T10:08:48.096Z,523.13
2018-07-24T10:09:48.223Z,517.50
2018-07-24T10:10:48.419Z,511.88
2018-07-24T10:11:48.616Z,511.88
2018-07-24T10:12:48.851Z,506.25
2018-07-24T10:13:48.998Z,500.63
2018-07-24T10:14:49.198Z,495.00
2018-07-24T10:15:49.628Z,489.38
2018-07-24T10:16:49.620Z,489.38
2018-07-24T10:17:49.796Z,483.75
2018-07-24T10:18:49.968Z,478.13
2018-07-24T10:19:50.131Z,478.13
2018-07-24T10:20:50.329Z,472.50
2018-07-24T10:21:50.524Z,466.88
2018-07-24T10:22:50.712Z,461.25
2018-07-24T10:23:50.936Z,455.63
2018-07-24T10:24:51.107Z,450.00
2018-07-24T10:25:51.286Z,444.38
2018-07-24T10:26:51.478Z,438.75
2018-07-24T10:27:51.735Z,438.75
2018-07-24T10:28:51.926Z,433.13
2018-07-24T10:29:52.111Z,427.50
2018-07-24T10:30:52.307Z,427.50
2018-07-24T10:31:52.502Z,427.50
2018-07-24T10:32:52.717Z,421.88
2018-07-24T10:33:53.139Z,410.63
2018-07-24T10:34:53.100Z,405.00
2018-07-24T10:35:53.284Z,405.00
2018-07-24T10:36:53.488Z,399.38
2018-07-24T10:37:53.671Z,399.38
2018-07-24T10:38:53.856Z,393.75
2018-07-24T10:39:54.035Z,393.75
2018-07-24T10:40:54.475Z,388.13
2018-07-24T10:41:54.405Z,388.13
2018-07-24T10:42:54.597Z,388.13
2018-07-24T10:43:54.783Z,382.50
2018-07-24T10:44:54.972Z,382.50
2018-07-24T10:45:55.158Z,376.88
2018-07-24T10:46:55.344Z,376.88
2018-07-24T10:47:55.530Z,371.25
2018-07-24T10:48:55.717Z,371.25
2018-07-24T10:49:55.924Z,371.25
2018-07-24T10:50:56.103Z,365.63
2018-07-24T10:51:56.445Z,365.63
2018-07-24T10:52:56.572Z,365.63
2018-07-24T10:53:56.720Z,360.00
2018-07-24T10:54:56.914Z,360.00
2018-07-24T10:55:57.099Z,354.38
2018-07-24T10:56:57.303Z,354.38
2018-07-24T10:57:57.454Z,354.38
2018-07-24T10:58:57.656Z,354.38
2018-07-24T10:59:57.823Z,348.75
2018-07-24T11:00:58.001Z,348.75
2018-07-24T11:01:58.212Z,348.75
2018-07-24T11:02:58.379Z,343.13
2018-07-24T11:03:58.537Z,343.13
2018-07-24T11:04:58.733Z,343.13
2018-07-24T11:05:58.924Z,343.13
2018-07-24T11:06:59.096Z,337.50
2018-07-24T11:07:59.286Z,337.50
2018-07-24T11:08:59.465Z,337.50
2018-07-24T11:09:59.639Z,337.50
2018-07-24T11:10:59.841Z,337.50
2018-07-24T11:12:00.015Z,337.50
2018-07-24T11:13:00.208Z,337.50
2018-07-24T11:14:00.396Z,337.50
2018-07-24T11:15:00.592Z,337.50
2018-07-24T11:16:00.813Z,337.50
2018-07-24T11:17:00.993Z,331.88
2018-07-24T11:18:01.172Z,337.50
2018-07-24T11:19:01.375Z,331.88
2018-07-24T11:20:01.540Z,331.88
2018-07-24T11:21:01.739Z,331.88
2018-07-24T11:22:02.095Z,326.25
2018-07-24T11:23:02.279Z,331.88
2018-07-24T11:24:02.328Z,326.25
2018-07-24T11:25:02.504Z,326.25
2018-07-24T11:26:02.716Z,326.25
2018-07-24T11:27:02.877Z,326.25
2018-07-24T11:28:03.064Z,326.25
2018-07-24T11:29:03.267Z,326.25
2018-07-24T11:30:03.451Z,326.25
2018-07-24T11:31:03.645Z,320.63
2018-07-24T11:32:03.836Z,320.63
2018-07-24T11:33:04.145Z,320.63
2018-07-24T11:34:04.204Z,320.63
2018-07-24T11:35:04.401Z,320.63
2018-07-24T11:36:04.630Z,320.63
2018-07-24T11:37:04.760Z,320.63
2018-07-24T11:38:04.945Z,320.63
2018-07-24T11:39:05.173Z,320.63
2018-07-24T11:40:05.320Z,320.63
2018-07-24T11:41:05.524Z,320.63
2018-07-24T11:42:05.699Z,320.63
2018-07-24T11:43:05.865Z,320.63
2018-07-24T11:44:06.158Z,320.63
2018-07-24T11:45:06.271Z,320.63
2018-07-24T11:46:06.458Z,320.63
2018-07-24T11:47:06.652Z,320.63
2018-07-24T11:48:06.868Z,320.63
2018-07-24T11:49:07.006Z,320.63
2018-07-24T11:50:07.205Z,320.63
2018-07-24T11:51:07.369Z,315.00
2018-07-24T11:52:07.566Z,315.00
2018-07-24T11:53:07.762Z,315.00
2018-07-24T11:54:07.950Z,315.00
2018-07-24T11:55:08.122Z,315.00
2018-07-24T11:56:08.307Z,315.00
2018-07-24T11:57:08.497Z,315.00
2018-07-24T11:58:08.671Z,315.00
2018-07-24T11:59:08.866Z,315.00
2018-07-24T12:00:09.043Z,315.00
2018-07-24T12:01:09.269Z,315.00
2018-07-24T12:02:09.452Z,315.00
2018-07-24T12:03:09.623Z,315.00
2018-07-24T12:04:09.809Z,315.00
2018-07-24T12:05:09.989Z,315.00
2018-07-24T12:06:10.180Z,315.00
2018-07-24T12:07:10.373Z,315.00
2018-07-24T12:08:10.532Z,315.00
2018-07-24T12:09:10.708Z,315.00
2018-07-24T12:10:10.902Z,315.00
2018-07-24T12:11:11.070Z,315.00
2018-07-24T12:12:11.260Z,315.00
2018-07-24T12:13:11.449Z,315.00
2018-07-24T12:14:11.637Z,315.00
2018-07-24T12:15:11.885Z,309.38
2018-07-24T12:16:12.009Z,309.38
2018-07-24T12:17:12.185Z,309.38
2018-07-24T12:18:12.373Z,309.38
2018-07-24T12:19:12.565Z,309.38
2018-07-24T12:20:12.772Z,309.38
2018-07-24T12:21:12.950Z,309.38
2018-07-24T12:22:13.129Z,309.38
2018-07-24T12:23:13.313Z,309.38
2018-07-24T12:24:13.504Z,309.38
2018-07-24T12:25:13.727Z,303.75
2018-07-24T12:26:13.893Z,303.75
2018-07-24T12:27:14.183Z,303.75
2018-07-24T12:28:14.254Z,303.75
2018-07-24T12:29:14.435Z,303.75
2018-07-24T12:30:14.610Z,303.75
2018-07-24T12:31:14.793Z,309.38
2018-07-24T12:32:15.158Z,303.75
2018-07-24T12:33:15.208Z,303.75
2018-07-24T12:34:15.406Z,303.75
2018-07-24T12:35:15.560Z,303.75
2018-07-24T12:36:15.853Z,303.75
2018-07-24T12:37:15.921Z,303.75
2018-07-24T12:38:16.106Z,303.75
2018-07-24T12:39:16.583Z,303.75
2018-07-24T12:40:16.457Z,303.75
2018-07-24T12:41:16.658Z,303.75
2018-07-24T12:42:16.827Z,303.75